createdAt,value
2022-10-20T00:01:20.807Z,4.50
2022-10-20T00:03:50.678Z,5.33
2022-10-20T00:06:22.032Z,5.90
2022-10-20T00:08:50.798Z,4.47
2022-10-20T00:11:22.231Z,5.77
2022-10-20T00:13:52.253Z,5.60
2022-10-20T00:16:21.149Z,5.67
2022-10-20T00:18:50.677Z,5.17
2022-10-20T00:21:23.740Z,4.80
2022-10-20T00:23:55.180Z,4.60
2022-10-20T00:26:25.818Z,4.60
2022-10-20T00:28:54.936Z,5.53
2022-10-20T00:31:24.738Z,4.33
2022-10-20T00:33:54.518Z,5.87
2022-10-20T00:36:24.805Z,4.90
2022-10-20T00:38:59.905Z,6.23
2022-10-20T00:41:28.461Z,5.30
2022-10-20T00:43:58.977Z,4.50
2022-10-20T00:46:33.005Z,4.53
2022-10-20T00:49:13.441Z,4.70
2022-10-20T00:51:41.484Z,4.80
2022-10-20T00:54:17.430Z,5.03
2022-10-20T00:56:49.671Z,4.30
2022-10-20T00:59:21.176Z,4.30
2022-10-20T01:01:50.188Z,4.73
2022-10-20T01:04:20.113Z,4.20
2022-10-20T01:06:48.063Z,4.10
2022-10-20T01:09:16.111Z,4.77
2022-10-20T01:11:54.703Z,4.70
2022-10-20T01:14:36.644Z,4.17
2022-10-20T01:17:17.564Z,4.03
2022-10-20T01:20:26.431Z,4.50
2022-10-20T01:23:41.013Z,4.37
2022-10-20T01:26:56.687Z,3.80
2022-10-20T01:29:33.156Z,3.83
2022-10-20T01:32:10.361Z,4.57
2022-10-20T01:34:50.624Z,5.10
2022-10-20T01:37:40.713Z,4.67
2022-10-20T01:40:26.407Z,4.33
2022-10-20T01:42:58.108Z,5.83
2022-10-20T01:45:31.863Z,4.60
2022-10-20T01:48:03.967Z,4.90
2022-10-20T01:50:32.814Z,4.40
2022-10-20T01:53:01.515Z,4.17
2022-10-20T01:55:29.757Z,5.33
2022-10-20T01:58:17.339Z,4.00
2022-10-20T02:00:47.555Z,4.37
2022-10-20T02:03:38.386Z,3.83
2022-10-20T02:06:21.417Z,4.93
2022-10-20T02:08:53.822Z,4.50
2022-10-20T02:11:33.914Z,4.70
2022-10-20T02:14:03.034Z,4.70
2022-10-20T02:16:35.449Z,4.27
2022-10-20T02:19:05.135Z,4.13
2022-10-20T02:21:33.184Z,4.10
2022-10-20T02:24:04.896Z,4.20
2022-10-20T02:26:34.373Z,5.17
2022-10-20T02:29:10.832Z,4.07
2022-10-20T02:31:40.440Z,4.60
2022-10-20T02:34:09.325Z,4.50
2022-10-20T02:36:41.353Z,3.93
2022-10-20T02:39:09.951Z,4.70
2022-10-20T02:41:38.556Z,3.63
2022-10-20T02:44:06.645Z,3.77
2022-10-20T02:46:34.619Z,4.60
2022-10-20T02:49:03.962Z,4.93
2022-10-20T02:51:31.921Z,3.70
2022-10-20T02:53:59.934Z,4.50
2022-10-20T02:56:30.306Z,5.07
2022-10-20T02:58:59.162Z,4.60
2022-10-20T03:01:30.050Z,5.03
2022-10-20T03:03:59.724Z,4.43
2022-10-20T03:06:29.076Z,4.20
2022-10-20T03:08:57.180Z,4.90
2022-10-20T03:11:25.430Z,4.90
2022-10-20T03:13:53.342Z,4.33
2022-10-20T03:16:21.461Z,4.50
2022-10-20T03:18:49.566Z,5.13
2022-10-20T03:21:17.561Z,4.50
2022-10-20T03:23:46.873Z,5.17
2022-10-20T03:26:14.943Z,4.63
2022-10-20T03:28:43.222Z,4.97
2022-10-20T03:31:11.538Z,5.50
2022-10-20T03:33:39.477Z,5.00
2022-10-20T03:36:08.009Z,4.27
2022-10-20T03:38:35.963Z,5.37
2022-10-20T03:41:05.503Z,5.00
2022-10-20T03:43:33.570Z,4.97
2022-10-20T03:46:06.042Z,3.97
2022-10-20T03:48:34.171Z,5.20
2022-10-20T03:51:04.747Z,5.60
2022-10-20T03:53:33.430Z,6.13
2022-10-20T03:56:08.044Z,5.97
2022-10-20T03:58:36.630Z,5.13
2022-10-20T04:01:06.336Z,5.27
2022-10-20T04:03:34.639Z,6.07
2022-10-20T04:06:02.619Z,5.90
2022-10-20T04:08:30.623Z,5.23
2022-10-20T04:11:00.350Z,5.63
2022-10-20T04:13:29.649Z,5.43
2022-10-20T04:15:57.608Z,5.67
2022-10-20T04:18:25.567Z,4.97
2022-10-20T04:20:53.521Z,5.30
2022-10-20T04:23:21.771Z,5.70
2022-10-20T04:25:49.822Z,4.77
2022-10-20T04:28:20.300Z,4.63
2022-10-20T04:30:54.963Z,5.17
2022-10-20T04:33:22.883Z,5.67
2022-10-20T04:38:23.742Z,5.80
2022-10-20T04:40:58.064Z,5.30
2022-10-20T04:43:28.601Z,5.13
2022-10-20T04:46:03.966Z,5.63
2022-10-20T04:48:35.299Z,5.20
2022-10-20T04:51:05.953Z,4.90
2022-10-20T04:53:34.285Z,5.10
2022-10-20T04:56:04.779Z,5.83
2022-10-20T04:58:32.885Z,6.10
2022-10-20T05:01:05.536Z,6.17
2022-10-20T05:03:33.941Z,6.10
2022-10-20T05:06:13.271Z,5.40
2022-10-20T05:08:42.691Z,6.30
2022-10-20T05:11:12.544Z,5.50
2022-10-20T05:13:41.043Z,5.93
2022-10-20T05:16:11.506Z,5.23
2022-10-20T05:18:40.506Z,6.27
2022-10-20T05:21:10.363Z,6.07
2022-10-20T05:23:39.754Z,5.70
2022-10-20T05:26:12.180Z,6.20
2022-10-20T05:28:40.854Z,5.63
2022-10-20T05:31:11.061Z,4.83
2022-10-20T05:33:40.391Z,6.27
2022-10-20T05:36:10.292Z,6.77
2022-10-20T05:38:38.591Z,6.63
2022-10-20T05:41:08.391Z,6.73
2022-10-20T05:43:38.387Z,6.70
2022-10-20T05:46:06.991Z,7.00
2022-10-20T05:48:42.823Z,7.13
2022-10-20T05:51:15.264Z,7.00
2022-10-20T05:53:44.332Z,7.37
2022-10-20T05:56:16.057Z,7.87
2022-10-20T05:58:45.582Z,7.27
2022-10-20T06:01:17.795Z,7.20
2022-10-20T06:03:50.327Z,6.93
2022-10-20T06:06:18.677Z,9.00
2022-10-20T06:08:47.040Z,6.77
2022-10-20T06:11:16.738Z,7.33
2022-10-20T06:13:47.286Z,8.10
2022-10-20T06:16:21.277Z,7.13
2022-10-20T06:18:51.589Z,7.07
2022-10-20T06:21:21.936Z,7.30
2022-10-20T06:23:50.122Z,6.87
2022-10-20T06:26:21.085Z,7.40
2022-10-20T06:28:52.856Z,7.27
2022-10-20T06:31:23.240Z,6.90
2022-10-20T06:33:53.449Z,7.50
2022-10-20T06:36:22.597Z,8.30
2022-10-20T06:38:58.062Z,7.37
2022-10-20T06:41:27.728Z,7.17
2022-10-20T06:43:59.124Z,6.97
2022-10-20T06:46:28.712Z,8.10
2022-10-20T06:48:58.989Z,7.33
2022-10-20T06:51:29.910Z,7.70
2022-10-20T06:53:58.097Z,7.60
2022-10-20T06:56:28.909Z,7.63
2022-10-20T06:58:58.852Z,8.40
2022-10-20T07:01:28.512Z,6.70
2022-10-20T07:04:00.453Z,8.57
2022-10-20T07:06:30.997Z,8.50
2022-10-20T07:09:00.262Z,8.30
2022-10-20T07:11:31.470Z,6.97
2022-10-20T07:14:00.843Z,7.70
2022-10-20T07:16:31.260Z,7.13
2022-10-20T07:19:01.461Z,8.30
2022-10-20T07:21:35.811Z,8.80
2022-10-20T07:24:07.366Z,7.67
2022-10-20T07:26:41.241Z,7.60
2022-10-20T07:29:09.418Z,8.10
2022-10-20T07:31:40.372Z,8.50
2022-10-20T07:34:28.090Z,7.43
2022-10-20T07:36:57.710Z,8.60
2022-10-20T07:39:26.649Z,7.13
2022-10-20T07:41:54.877Z,7.23
2022-10-20T07:44:23.035Z,7.60
2022-10-20T07:46:54.012Z,8.83
2022-10-20T07:52:12.547Z,7.80
2022-10-20T07:54:42.473Z,8.37
2022-10-20T07:57:10.584Z,8.97
2022-10-20T07:59:38.816Z,8.90
2022-10-20T08:02:06.844Z,8.30
2022-10-20T08:04:36.374Z,8.27
2022-10-20T08:07:04.439Z,8.20
2022-10-20T08:09:33.838Z,9.47
2022-10-20T08:12:02.074Z,9.07
2022-10-20T08:14:35.028Z,8.50
2022-10-20T08:17:04.722Z,8.40
2022-10-20T08:19:39.490Z,9.90
2022-10-20T08:22:12.906Z,8.77
2022-10-20T08:24:40.859Z,9.97
2022-10-20T08:27:08.843Z,7.60
2022-10-20T08:29:37.786Z,8.60
2022-10-20T08:32:06.321Z,10.30
2022-10-20T08:34:34.371Z,10.37
2022-10-20T08:37:02.337Z,10.20
2022-10-20T08:39:31.878Z,10.00
2022-10-20T08:42:09.579Z,7.73
2022-10-20T08:44:41.242Z,9.10
2022-10-20T08:47:29.174Z,8.80
2022-10-20T08:50:01.076Z,9.70
2022-10-20T08:52:29.430Z,8.67
2022-10-20T08:54:59.227Z,8.87
2022-10-20T08:57:33.333Z,10.00
2022-10-20T09:00:17.119Z,8.90
2022-10-20T09:02:45.575Z,9.33
2022-10-20T09:05:18.284Z,8.90
2022-10-20T09:07:49.858Z,8.67
2022-10-20T09:10:30.784Z,9.77
2022-10-20T09:12:59.466Z,8.53
2022-10-20T09:15:28.989Z,9.20
2022-10-20T09:18:02.784Z,8.87
2022-10-20T09:20:35.340Z,10.83
2022-10-20T09:23:07.881Z,10.50
2022-10-20T09:25:46.780Z,9.67
2022-10-20T09:28:23.305Z,9.67
2022-10-20T09:30:51.581Z,11.07
2022-10-20T09:33:29.591Z,8.80
2022-10-20T09:36:05.696Z,8.67
2022-10-20T09:38:36.470Z,9.80
2022-10-20T09:41:17.299Z,9.77
2022-10-20T09:43:58.021Z,10.00
2022-10-20T09:46:29.645Z,8.90
2022-10-20T09:48:58.413Z,10.33
2022-10-20T09:51:29.195Z,10.30
2022-10-20T09:54:01.808Z,11.40
2022-10-20T09:56:35.935Z,11.40
2022-10-20T09:59:08.670Z,11.90
2022-10-20T10:01:53.651Z,11.10
2022-10-20T10:04:34.810Z,10.80
2022-10-20T10:07:03.258Z,10.03
2022-10-20T10:09:40.320Z,11.30
2022-10-20T10:12:20.466Z,10.97
2022-10-20T10:14:53.743Z,10.83
2022-10-20T10:17:30.961Z,11.00
2022-10-20T10:19:59.100Z,11.07
2022-10-20T10:22:27.508Z,11.53
2022-10-20T10:24:56.827Z,12.97
2022-10-20T10:27:29.076Z,10.37
2022-10-20T10:30:28.365Z,10.27
2022-10-20T10:32:57.190Z,12.03
2022-10-20T10:35:28.492Z,10.90
2022-10-20T10:37:57.455Z,11.33
2022-10-20T10:40:37.404Z,12.30
2022-10-20T10:43:29.610Z,11.20
2022-10-20T10:45:59.922Z,11.27
2022-10-20T10:48:47.962Z,10.10
2022-10-20T10:51:27.933Z,11.20
2022-10-20T10:54:13.349Z,13.23
2022-10-20T10:56:46.303Z,11.90
2022-10-20T10:59:23.225Z,10.60
2022-10-20T11:02:24.983Z,10.53
2022-10-20T11:05:23.653Z,9.87
2022-10-20T11:08:04.186Z,9.90
2022-10-20T11:10:41.718Z,10.33
2022-10-20T11:13:27.237Z,10.93
2022-10-20T11:16:21.426Z,10.90
2022-10-20T11:19:33.866Z,10.93
2022-10-20T11:22:17.038Z,11.87
2022-10-20T11:24:52.131Z,10.77
2022-10-20T11:27:26.261Z,10.47
2022-10-20T11:30:04.487Z,11.20
2022-10-20T11:32:42.190Z,10.67
2022-10-20T11:35:22.593Z,12.23
2022-10-20T11:37:57.930Z,11.10
2022-10-20T11:40:31.802Z,11.03
2022-10-20T11:43:11.056Z,11.10
2022-10-20T11:45:50.497Z,11.00
2022-10-20T11:48:27.981Z,11.70
2022-10-20T11:51:18.864Z,10.43
2022-10-20T11:54:24.540Z,9.90
2022-10-20T11:57:06.975Z,12.40
2022-10-20T12:00:04.790Z,11.00
2022-10-20T12:03:23.124Z,12.40
2022-10-20T12:06:47.734Z,11.00
2022-10-20T12:09:58.454Z,12.57
2022-10-20T12:12:36.251Z,9.93
2022-10-20T12:15:20.340Z,10.40
2022-10-20T12:17:49.759Z,10.40
2022-10-20T12:20:53.994Z,11.00
2022-10-20T12:24:03.055Z,11.83
2022-10-20T12:27:18.464Z,11.13
2022-10-20T12:30:42.774Z,11.17
2022-10-20T12:33:18.754Z,11.47
2022-10-20T12:36:14.893Z,11.43
2022-10-20T12:38:46.467Z,10.57
2022-10-20T12:41:29.340Z,11.73
2022-10-20T12:44:04.707Z,11.50
2022-10-20T12:46:35.571Z,11.00
2022-10-20T12:49:11.141Z,11.57
2022-10-20T12:51:50.125Z,11.17
2022-10-20T12:54:26.434Z,14.30
2022-10-20T12:57:01.474Z,11.10
2022-10-20T12:59:41.510Z,10.30
2022-10-20T13:02:48.579Z,14.10
2022-10-20T13:05:45.950Z,12.10
2022-10-20T13:08:33.764Z,10.50
2022-10-20T13:11:53.987Z,11.90
2022-10-20T13:14:51.951Z,11.37
2022-10-20T13:17:45.741Z,12.43
2022-10-20T13:20:27.134Z,12.00
2022-10-20T13:22:56.227Z,12.10
2022-10-20T13:25:41.155Z,13.87
2022-10-20T13:28:20.111Z,14.00
2022-10-20T13:31:18.677Z,12.13
2022-10-20T13:34:04.518Z,13.27
2022-10-20T13:36:56.769Z,13.00
2022-10-20T13:39:38.396Z,13.03
2022-10-20T13:42:26.780Z,11.60
2022-10-20T13:45:05.157Z,13.27
2022-10-20T13:47:49.461Z,13.17
2022-10-20T13:50:21.692Z,27.20
2022-10-20T13:52:53.483Z,14.80
2022-10-20T13:55:24.578Z,13.43
2022-10-20T13:57:56.045Z,12.97
2022-10-20T14:00:28.387Z,13.83
2022-10-20T14:03:01.422Z,14.03
2022-10-20T14:05:32.416Z,14.03
2022-10-20T14:08:06.174Z,12.07
2022-10-20T14:10:45.110Z,14.60
2022-10-20T14:13:17.265Z,14.50
2022-10-20T14:15:48.928Z,13.23
2022-10-20T14:18:25.917Z,15.80
2022-10-20T14:21:02.888Z,12.83
2022-10-20T14:23:36.703Z,13.03
2022-10-20T14:26:05.839Z,13.30
2022-10-20T14:28:36.690Z,12.23
2022-10-20T14:31:05.501Z,13.47
2022-10-20T14:33:37.889Z,13.33
2022-10-20T14:36:06.310Z,12.13
2022-10-20T14:38:39.009Z,14.60
2022-10-20T14:41:09.621Z,14.63
2022-10-20T14:43:41.978Z,13.23
2022-10-20T14:46:13.018Z,14.20
2022-10-20T14:48:45.929Z,15.30
2022-10-20T14:51:35.646Z,17.23
2022-10-20T14:54:28.000Z,14.60
2022-10-20T14:56:59.070Z,15.07
2022-10-20T14:59:30.099Z,15.93
2022-10-20T15:02:07.596Z,13.27
2022-10-20T15:04:38.407Z,13.70
2022-10-20T15:07:14.543Z,13.03
2022-10-20T15:09:45.885Z,14.80
2022-10-20T15:12:18.648Z,16.80
2022-10-20T15:14:50.693Z,15.53
2022-10-20T15:17:37.624Z,13.87
2022-10-20T15:20:38.697Z,13.40
2022-10-20T15:23:11.026Z,14.07
2022-10-20T15:25:48.537Z,14.33
2022-10-20T15:28:46.171Z,12.63
2022-10-20T15:31:21.330Z,13.80
2022-10-20T15:33:52.252Z,13.60
2022-10-20T15:36:28.142Z,13.53
2022-10-20T15:38:57.241Z,14.30
2022-10-20T15:41:27.960Z,13.93
2022-10-20T15:43:55.931Z,15.20
2022-10-20T15:46:24.282Z,14.40
2022-10-20T15:48:52.251Z,13.50
2022-10-20T15:51:26.631Z,13.80
2022-10-20T15:53:54.859Z,15.00
2022-10-20T15:56:23.037Z,13.10
2022-10-20T15:58:51.319Z,13.70
2022-10-20T16:01:21.420Z,12.50
2022-10-20T16:03:50.356Z,12.10
2022-10-20T16:06:21.094Z,13.03
2022-10-20T16:08:51.142Z,14.23
2022-10-20T16:11:22.045Z,14.07
2022-10-20T16:13:50.460Z,13.87
2022-10-20T16:16:22.103Z,12.17
2022-10-20T16:18:50.155Z,13.60
2022-10-20T16:21:18.150Z,13.33
2022-10-20T16:23:48.006Z,13.20
2022-10-20T16:26:15.988Z,12.97
2022-10-20T16:28:44.180Z,12.67
2022-10-20T16:31:14.900Z,13.13
2022-10-20T16:33:43.575Z,14.00
2022-10-20T16:36:14.604Z,13.43
2022-10-20T16:38:44.371Z,12.80
2022-10-20T16:41:16.363Z,12.47
2022-10-20T16:43:46.636Z,13.03
2022-10-20T16:46:16.253Z,12.50
2022-10-20T16:48:47.752Z,11.67
2022-10-20T16:51:17.116Z,13.33
2022-10-20T16:53:45.388Z,13.67
2022-10-20T16:56:18.171Z,13.40
2022-10-20T16:58:49.439Z,12.73
2022-10-20T17:01:20.116Z,15.37
2022-10-20T17:03:50.877Z,11.37
2022-10-20T17:06:22.298Z,13.70
2022-10-20T17:08:51.121Z,12.53
2022-10-20T17:11:23.778Z,11.47
2022-10-20T17:13:52.958Z,11.63
2022-10-20T17:16:26.197Z,12.27
2022-10-20T17:18:57.438Z,12.57
2022-10-20T17:21:26.066Z,11.70
2022-10-20T17:23:54.244Z,12.23
2022-10-20T17:26:26.266Z,11.93
2022-10-20T17:28:56.375Z,10.73
2022-10-20T17:31:24.976Z,12.97
2022-10-20T17:33:53.386Z,13.13
2022-10-20T17:36:25.911Z,13.00
2022-10-20T17:39:05.530Z,11.97
2022-10-20T17:41:35.741Z,11.60
2022-10-20T17:44:07.669Z,11.30
2022-10-20T17:46:36.125Z,12.83
2022-10-20T17:49:04.316Z,12.17
2022-10-20T17:51:34.786Z,17.33
2022-10-20T17:54:03.311Z,12.17
2022-10-20T17:56:36.031Z,10.37
2022-10-20T17:59:07.387Z,11.40
2022-10-20T18:01:37.598Z,14.30
2022-10-20T18:04:08.292Z,12.37
2022-10-20T18:06:37.450Z,12.37
2022-10-20T18:09:08.114Z,13.10
2022-10-20T18:11:38.092Z,13.13
2022-10-20T18:14:06.380Z,10.87
2022-10-20T18:16:37.963Z,12.87
2022-10-20T18:19:07.366Z,15.00
2022-10-20T18:21:35.698Z,16.70
2022-10-20T18:24:06.535Z,15.30
2022-10-20T18:26:38.042Z,17.10
2022-10-20T18:29:08.698Z,14.07
2022-10-20T18:31:39.093Z,13.13
2022-10-20T18:34:09.710Z,11.90
2022-10-20T18:36:42.062Z,12.07
2022-10-20T18:39:14.876Z,12.77
2022-10-20T18:41:46.259Z,14.47
2022-10-20T18:44:16.736Z,13.47
2022-10-20T18:46:46.209Z,15.60
2022-10-20T18:49:18.758Z,20.30
2022-10-20T18:51:48.207Z,14.00
2022-10-20T18:54:17.283Z,14.00
2022-10-20T18:56:46.809Z,15.50
2022-10-20T18:59:16.211Z,14.10
2022-10-20T19:01:44.564Z,16.53
2022-10-20T19:04:13.417Z,14.67
2022-10-20T19:06:44.726Z,13.60
2022-10-20T19:09:15.614Z,15.80
2022-10-20T19:11:46.275Z,13.03
2022-10-20T19:14:15.469Z,12.43
2022-10-20T19:16:47.597Z,12.30
2022-10-20T19:19:17.835Z,13.57
2022-10-20T19:21:46.078Z,17.70
2022-10-20T19:24:17.120Z,13.63
2022-10-20T19:26:56.812Z,11.80
2022-10-20T19:29:31.216Z,19.53
2022-10-20T19:32:01.050Z,15.33
2022-10-20T19:34:34.196Z,14.27
2022-10-20T19:37:02.805Z,14.60
2022-10-20T19:39:33.494Z,13.17
2022-10-20T19:42:04.826Z,13.07
2022-10-20T19:44:33.703Z,12.87
2022-10-20T19:47:02.102Z,13.40
2022-10-20T19:49:30.526Z,13.43
2022-10-20T19:51:58.618Z,13.00
2022-10-20T19:54:27.057Z,12.47
2022-10-20T19:56:55.034Z,11.67
2022-10-20T19:59:24.470Z,11.87
2022-10-20T20:01:53.108Z,12.63
2022-10-20T20:04:21.129Z,10.97
2022-10-20T20:06:49.272Z,12.37
2022-10-20T20:09:17.672Z,13.40
2022-10-20T20:11:45.736Z,13.50
2022-10-20T20:14:17.052Z,16.47
2022-10-20T20:16:47.483Z,17.17
2022-10-20T20:19:16.721Z,14.43
2022-10-20T20:21:45.832Z,15.27
2022-10-20T20:24:14.858Z,12.07
2022-10-20T20:26:44.364Z,12.20
2022-10-20T20:29:12.637Z,13.00
2022-10-20T20:31:40.699Z,11.77
2022-10-20T20:34:10.018Z,11.10
2022-10-20T20:36:39.324Z,12.53
2022-10-20T20:39:08.142Z,11.20
2022-10-20T20:41:36.534Z,12.23
2022-10-20T20:44:08.553Z,12.37
2022-10-20T20:46:40.306Z,13.53
2022-10-20T20:49:09.998Z,13.37
2022-10-20T20:51:37.994Z,13.53
2022-10-20T20:54:06.077Z,12.07
2022-10-20T20:56:34.316Z,11.53
2022-10-20T20:59:02.335Z,12.13
2022-10-20T21:01:32.137Z,14.27
2022-10-20T21:04:03.048Z,15.63
2022-10-20T21:06:49.418Z,16.77
2022-10-20T21:09:21.627Z,11.37
2022-10-20T21:11:49.904Z,13.77
2022-10-20T21:14:17.870Z,12.20
2022-10-20T21:16:46.388Z,12.57
2022-10-20T21:19:14.386Z,13.73
2022-10-20T21:21:50.150Z,12.00
2022-10-20T21:24:19.157Z,12.87
2022-10-20T21:26:48.696Z,14.50
2022-10-20T21:29:16.908Z,14.67
2022-10-20T21:31:44.962Z,14.73
2022-10-20T21:34:13.198Z,15.40
2022-10-20T21:36:41.195Z,15.07
2022-10-20T21:39:15.734Z,16.20
2022-10-20T21:41:45.240Z,14.40
2022-10-20T21:44:15.440Z,14.77
2022-10-20T21:46:47.412Z,13.10
2022-10-20T21:49:18.293Z,13.60
2022-10-20T21:51:48.624Z,13.13
2022-10-20T21:56:53.943Z,12.40
2022-10-20T21:59:24.758Z,12.07
2022-10-20T22:01:54.623Z,12.77
2022-10-20T22:04:25.183Z,13.10
2022-10-20T22:06:53.793Z,12.97
2022-10-20T22:09:23.884Z,13.60
2022-10-20T22:11:55.033Z,13.80
2022-10-20T22:14:23.391Z,14.00
2022-10-20T22:16:51.742Z,14.00
2022-10-20T22:19:22.962Z,13.20
2022-10-20T22:21:52.995Z,13.03
2022-10-20T22:24:23.777Z,13.40
2022-10-20T22:26:52.760Z,14.10
2022-10-20T22:29:22.788Z,13.77
2022-10-20T22:31:51.577Z,12.73
2022-10-20T22:34:19.609Z,14.57
2022-10-20T22:36:47.619Z,13.47
2022-10-20T22:39:15.865Z,12.87
2022-10-20T22:41:45.279Z,15.53
2022-10-20T22:44:13.301Z,13.00
2022-10-20T22:46:41.299Z,13.80
2022-10-20T22:49:09.250Z,15.03
2022-10-20T22:51:37.282Z,16.37
2022-10-20T22:54:05.434Z,12.90
2022-10-20T22:56:33.371Z,14.67
2022-10-20T22:59:02.719Z,14.60
2022-10-20T23:01:30.755Z,16.43
2022-10-20T23:03:58.753Z,16.90
2022-10-20T23:06:27.915Z,15.70
2022-10-20T23:08:57.438Z,17.07
2022-10-20T23:11:25.844Z,15.80
2022-10-20T23:13:54.189Z,15.43
2022-10-20T23:18:57.855Z,13.77
2022-10-20T23:21:26.405Z,14.60
2022-10-20T23:23:54.391Z,16.80
2022-10-20T23:26:22.343Z,15.87
2022-10-20T23:28:50.336Z,18.40
2022-10-20T23:31:21.464Z,17.10
2022-10-20T23:33:55.911Z,14.50
2022-10-20T23:36:24.467Z,16.90
2022-10-20T23:38:52.543Z,16.03
2022-10-20T23:41:20.981Z,15.57
2022-10-20T23:43:48.988Z,16.20
2022-10-20T23:46:18.437Z,15.70
2022-10-20T23:48:46.387Z,15.83
2022-10-20T23:51:15.713Z,13.67
2022-10-20T23:53:43.667Z,14.83
2022-10-20T23:56:11.668Z,15.80
2022-10-20T23:58:39.662Z,16.00
